createdAt,value
2018-07-21T00:00:01.889Z,76.90
2018-07-21T00:02:35.344Z,77.40
2018-07-21T00:05:08.769Z,77.70
2018-07-21T00:07:42.211Z,77.90
2018-07-21T00:10:15.637Z,78.10
2018-07-21T00:12:49.118Z,78.00
2018-07-21T00:15:22.537Z,78.60
2018-07-21T00:17:56.008Z,78.60
2018-07-21T00:20:29.492Z,78.90
2018-07-21T00:23:03.105Z,78.50
2018-07-21T00:25:36.529Z,78.40
2018-07-21T00:28:09.961Z,78.10
2018-07-21T00:30:43.353Z,77.90
2018-07-21T00:33:16.799Z,77.90
2018-07-21T00:35:50.184Z,78.70
2018-07-21T00:38:23.624Z,78.90
2018-07-21T00:40:57.041Z,78.40
2018-07-21T00:43:30.485Z,78.20
2018-07-21T00:46:03.917Z,78.10
2018-07-21T00:48:37.368Z,78.20
2018-07-21T00:51:10.792Z,78.10
2018-07-21T00:53:44.277Z,78.50
2018-07-21T00:56:17.703Z,78.60
2018-07-21T00:58:51.148Z,78.50
2018-07-21T01:01:24.626Z,78.90
2018-07-21T01:03:58.095Z,79.10
2018-07-21T01:06:31.483Z,79.30
2018-07-21T01:09:07.546Z,79.50
2018-07-21T01:11:40.972Z,79.30
2018-07-21T01:14:14.397Z,79.60
2018-07-21T01:16:47.832Z,79.70
2018-07-21T01:19:21.234Z,80.00
2018-07-21T01:21:54.703Z,80.00
2018-07-21T01:24:28.151Z,80.00
2018-07-21T01:27:01.571Z,79.80
2018-07-21T01:29:35.041Z,80.00
2018-07-21T01:32:08.444Z,80.20
2018-07-21T01:34:41.856Z,80.30
2018-07-21T01:37:15.320Z,80.30
2018-07-21T01:39:48.776Z,80.60
2018-07-21T01:42:23.161Z,80.70
2018-07-21T01:44:56.559Z,80.40
2018-07-21T01:47:29.984Z,80.70
2018-07-21T01:50:03.417Z,80.70
2018-07-21T01:52:36.975Z,80.50
2018-07-21T01:55:10.373Z,80.60
2018-07-21T01:57:43.836Z,80.60
2018-07-21T02:00:17.256Z,80.50
2018-07-21T02:02:50.745Z,80.00
2018-07-21T02:05:24.160Z,79.50
2018-07-21T02:07:57.632Z,79.80
2018-07-21T02:10:31.337Z,80.00
2018-07-21T02:13:04.810Z,80.00
2018-07-21T02:15:38.264Z,79.90
2018-07-21T02:18:11.658Z,79.80
2018-07-21T02:20:45.131Z,79.50
2018-07-21T02:23:18.534Z,79.90
2018-07-21T02:25:51.936Z,80.40
2018-07-21T02:28:25.340Z,80.70
2018-07-21T02:30:58.773Z,80.70
2018-07-21T02:33:32.165Z,80.70
2018-07-21T02:36:05.612Z,80.90
2018-07-21T02:38:39.013Z,81.10
2018-07-21T02:41:12.440Z,81.60
2018-07-21T02:43:45.825Z,81.80
2018-07-21T02:46:19.339Z,82.20
2018-07-21T02:48:52.765Z,82.30
2018-07-21T02:51:26.193Z,81.90
2018-07-21T02:53:59.652Z,81.90
2018-07-21T02:56:33.086Z,81.70
2018-07-21T02:59:06.590Z,81.80
2018-07-21T03:01:40.008Z,81.60
2018-07-21T03:04:13.384Z,81.60
2018-07-21T03:06:46.893Z,81.20
2018-07-21T03:09:20.301Z,81.10
2018-07-21T03:11:53.708Z,81.30
2018-07-21T03:14:27.129Z,81.10
2018-07-21T03:17:00.537Z,80.70
2018-07-21T03:19:33.945Z,80.30
2018-07-21T03:22:07.406Z,80.60
2018-07-21T03:24:40.841Z,80.80
2018-07-21T03:27:14.227Z,80.80
2018-07-21T03:29:47.685Z,82.00
2018-07-21T03:32:21.070Z,81.90
2018-07-21T03:34:54.500Z,82.10
2018-07-21T03:37:27.978Z,81.90
2018-07-21T03:40:01.600Z,81.70
2018-07-21T03:42:35.041Z,81.90
2018-07-21T03:45:08.496Z,81.80
2018-07-21T03:47:41.889Z,81.50
2018-07-21T03:50:15.348Z,81.60
2018-07-21T03:52:48.736Z,80.90
2018-07-21T03:55:22.247Z,80.90
2018-07-21T03:57:55.677Z,81.10
2018-07-21T04:00:29.159Z,80.80
2018-07-21T04:03:02.540Z,81.10
2018-07-21T04:05:35.992Z,81.60
2018-07-21T04:08:09.401Z,81.10
2018-07-21T04:10:42.827Z,80.70
2018-07-21T04:13:16.252Z,81.90
2018-07-21T04:15:49.656Z,82.10
2018-07-21T04:18:23.061Z,81.90
2018-07-21T04:20:56.497Z,82.40
2018-07-21T04:23:29.923Z,84.30
2018-07-21T04:26:03.323Z,85.10
2018-07-21T04:28:36.716Z,85.60
2018-07-21T04:31:10.160Z,86.70
2018-07-21T04:33:43.560Z,86.40
2018-07-21T04:36:17.016Z,86.10
2018-07-21T04:38:50.406Z,86.50
2018-07-21T04:41:24.044Z,87.70
2018-07-21T04:43:57.453Z,88.80
2018-07-21T04:46:30.906Z,86.70
2018-07-21T04:49:04.337Z,86.30
2018-07-21T04:51:37.769Z,85.50
2018-07-21T04:54:11.214Z,86.10
2018-07-21T04:56:44.631Z,86.10
2018-07-21T04:59:18.111Z,85.30
2018-07-21T05:01:51.604Z,85.60
2018-07-21T05:04:25.031Z,86.30
2018-07-21T05:06:58.453Z,86.90
2018-07-21T05:09:31.863Z,86.60
2018-07-21T05:12:05.361Z,87.80
2018-07-21T05:14:38.762Z,87.10
2018-07-21T05:17:12.243Z,87.20
2018-07-21T05:19:45.661Z,87.90
2018-07-21T05:22:19.082Z,88.30
2018-07-21T05:24:52.525Z,87.20
2018-07-21T05:27:25.940Z,88.00
2018-07-21T05:29:59.446Z,87.80
2018-07-21T05:32:32.883Z,86.60
2018-07-21T05:35:06.412Z,86.80
2018-07-21T05:37:39.839Z,87.30
2018-07-21T05:40:13.278Z,88.40
2018-07-21T05:42:46.727Z,87.90
2018-07-21T05:45:20.167Z,86.80
2018-07-21T05:47:53.652Z,86.50
2018-07-21T05:50:27.087Z,86.30
2018-07-21T05:53:00.722Z,86.10
2018-07-21T05:55:34.160Z,86.00
2018-07-21T05:58:07.659Z,86.20
2018-07-21T06:00:41.080Z,85.80
2018-07-21T06:03:14.528Z,85.60
2018-07-21T06:05:47.951Z,86.30
2018-07-21T06:08:21.439Z,87.60
2018-07-21T06:10:54.867Z,88.80
2018-07-21T06:13:28.381Z,86.50
2018-07-21T06:16:01.897Z,86.70
2018-07-21T06:18:35.344Z,88.20
2018-07-21T06:21:08.770Z,87.80
2018-07-21T06:23:42.253Z,88.10
2018-07-21T06:26:15.703Z,87.80
2018-07-21T06:28:49.155Z,87.40
2018-07-21T06:31:22.628Z,87.80
2018-07-21T06:33:56.053Z,87.50
2018-07-21T06:36:29.535Z,87.90
2018-07-21T06:39:03.114Z,87.80
2018-07-21T06:41:36.564Z,86.90
2018-07-21T06:44:10.164Z,87.00
2018-07-21T06:46:43.669Z,87.10
2018-07-21T06:49:17.090Z,87.60
2018-07-21T06:51:50.526Z,87.20
2018-07-21T06:54:23.981Z,87.80
2018-07-21T06:56:57.476Z,87.90
2018-07-21T06:59:30.947Z,87.70
2018-07-21T07:02:04.500Z,89.20
2018-07-21T07:04:38.110Z,87.30
2018-07-21T07:07:11.581Z,87.50
2018-07-21T07:09:45.136Z,87.80
2018-07-21T07:12:18.616Z,88.00
2018-07-21T07:14:52.021Z,87.60
2018-07-21T07:17:25.515Z,88.10
2018-07-21T07:19:58.980Z,87.00
2018-07-21T07:22:32.464Z,86.50
2018-07-21T07:25:05.945Z,88.40
2018-07-21T07:27:39.432Z,86.60
2018-07-21T07:30:12.941Z,86.90
2018-07-21T07:32:46.400Z,86.40
2018-07-21T07:35:19.865Z,87.20
2018-07-21T07:37:53.263Z,86.80
2018-07-21T07:40:26.847Z,86.20
2018-07-21T07:43:00.312Z,85.60
2018-07-21T07:45:33.797Z,85.60
2018-07-21T07:48:07.269Z,85.60
2018-07-21T07:50:40.725Z,85.40
2018-07-21T07:53:14.162Z,85.50
2018-07-21T07:55:47.649Z,85.70
2018-07-21T07:58:21.140Z,85.50
2018-07-21T08:00:54.636Z,85.20
2018-07-21T08:03:28.074Z,85.60
2018-07-21T08:06:01.553Z,86.80
2018-07-21T08:08:35.045Z,86.60
2018-07-21T08:11:08.501Z,86.30
2018-07-21T08:13:41.956Z,86.00
2018-07-21T08:16:15.458Z,86.70
2018-07-21T08:18:48.949Z,87.30
2018-07-21T08:21:22.429Z,87.20
2018-07-21T08:23:55.904Z,88.20
2018-07-21T08:26:29.478Z,86.70
2018-07-21T08:29:02.940Z,86.40
2018-07-21T08:31:36.457Z,86.50
2018-07-21T08:34:09.906Z,86.10
2018-07-21T08:36:43.409Z,86.90
2018-07-21T08:39:16.892Z,87.30
2018-07-21T08:41:50.352Z,86.60
2018-07-21T08:44:23.784Z,86.60
2018-07-21T08:46:57.233Z,87.10
2018-07-21T08:49:30.702Z,87.20
2018-07-21T08:52:04.201Z,86.10
2018-07-21T08:54:37.640Z,85.20
2018-07-21T08:57:11.303Z,84.70
2018-07-21T08:59:44.828Z,85.30
2018-07-21T09:02:18.338Z,85.20
2018-07-21T09:04:51.864Z,85.90
2018-07-21T09:07:25.371Z,85.70
2018-07-21T09:09:58.866Z,85.30
2018-07-21T09:12:32.366Z,84.60
2018-07-21T09:15:05.869Z,84.50
2018-07-21T09:17:39.316Z,84.10
2018-07-21T09:20:12.813Z,83.80
2018-07-21T09:22:46.362Z,83.50
2018-07-21T09:25:19.823Z,82.50
2018-07-21T09:27:53.312Z,84.20
2018-07-21T09:30:26.883Z,83.70
2018-07-21T09:33:00.304Z,84.70
2018-07-21T09:35:33.818Z,83.00
2018-07-21T09:38:07.294Z,82.40
2018-07-21T09:40:40.779Z,83.60
2018-07-21T09:43:14.283Z,82.50
2018-07-21T09:45:47.720Z,83.50
2018-07-21T09:48:21.180Z,82.00
2018-07-21T09:50:54.678Z,81.30
2018-07-21T09:53:28.096Z,80.80
2018-07-21T09:56:01.693Z,81.50
2018-07-21T09:58:35.103Z,82.10
2018-07-21T10:01:08.572Z,82.50
2018-07-21T10:03:42.044Z,81.30
2018-07-21T10:06:15.561Z,82.30
2018-07-21T10:08:49.029Z,81.50
2018-07-21T10:11:22.538Z,82.10
2018-07-21T10:13:56.077Z,83.20
2018-07-21T10:16:29.553Z,81.90
2018-07-21T10:19:03.064Z,80.70
2018-07-21T10:21:36.526Z,79.40
2018-07-21T10:24:15.225Z,79.10
2018-07-21T10:26:54.088Z,78.60
2018-07-21T10:29:27.559Z,78.50
2018-07-21T10:32:01.037Z,79.70
2018-07-21T10:34:34.584Z,78.70
2018-07-21T10:37:08.133Z,79.60
2018-07-21T10:39:41.668Z,79.40
2018-07-21T10:42:15.320Z,80.60
2018-07-21T10:44:48.748Z,80.80
2018-07-21T10:47:22.389Z,79.50
2018-07-21T10:49:55.874Z,79.70
2018-07-21T10:52:29.344Z,81.30
2018-07-21T10:55:02.810Z,82.10
2018-07-21T10:57:36.352Z,81.90
2018-07-21T11:00:09.908Z,82.20
2018-07-21T11:02:43.429Z,82.20
2018-07-21T11:05:17.071Z,83.20
2018-07-21T11:07:50.539Z,83.40
2018-07-21T11:10:24.014Z,83.80
2018-07-21T11:12:57.523Z,84.00
2018-07-21T11:15:31.062Z,84.30
2018-07-21T11:18:04.605Z,85.20
2018-07-21T11:20:38.049Z,83.80
2018-07-21T11:23:11.544Z,83.60
2018-07-21T11:25:45.006Z,83.70
2018-07-21T11:28:18.511Z,83.20
2018-07-21T11:30:51.979Z,83.30
2018-07-21T11:33:25.445Z,82.60
2018-07-21T11:35:59.265Z,82.50
2018-07-21T11:38:32.485Z,82.90
2018-07-21T11:41:06.079Z,83.30
2018-07-21T11:43:39.522Z,84.50
2018-07-21T11:46:13.036Z,83.80
2018-07-21T11:48:46.539Z,84.40
2018-07-21T11:51:20.058Z,84.00
2018-07-21T11:53:53.543Z,85.00
2018-07-21T11:56:27.065Z,84.80
2018-07-21T11:59:00.562Z,86.20
2018-07-21T12:01:34.141Z,85.80
2018-07-21T12:04:07.678Z,86.20
2018-07-21T12:06:41.190Z,87.30
2018-07-21T12:09:14.713Z,87.30
2018-07-21T12:11:48.300Z,87.20
2018-07-21T12:14:21.879Z,87.10
2018-07-21T12:16:55.470Z,87.20
2018-07-21T12:19:28.973Z,88.60
2018-07-21T12:22:02.466Z,87.70
2018-07-21T12:24:35.984Z,89.70
2018-07-21T12:27:09.543Z,89.60
2018-07-21T12:29:43.098Z,90.00
2018-07-21T12:32:16.641Z,89.30
2018-07-21T12:34:50.228Z,88.90
2018-07-21T12:37:23.725Z,87.90
2018-07-21T12:39:57.266Z,86.00
2018-07-21T12:42:30.811Z,85.40
2018-07-21T12:45:04.805Z,85.60
2018-07-21T12:47:38.466Z,86.80
2018-07-21T12:50:12.057Z,85.70
2018-07-21T12:52:45.641Z,84.90
2018-07-21T12:55:19.230Z,85.30
2018-07-21T12:57:53.238Z,83.50
2018-07-21T13:00:26.770Z,85.00
2018-07-21T13:03:00.271Z,84.30
2018-07-21T13:05:33.785Z,83.90
2018-07-21T13:08:07.377Z,83.80
2018-07-21T13:10:40.921Z,82.70
2018-07-21T13:13:14.409Z,83.80
2018-07-21T13:15:48.023Z,82.70
2018-07-21T13:18:21.572Z,81.90
2018-07-21T13:20:55.156Z,82.70
2018-07-21T13:23:28.697Z,82.20
2018-07-21T13:28:35.391Z,80.50
2018-07-21T13:31:09.330Z,79.90
2018-07-21T13:33:42.925Z,79.70
2018-07-21T13:36:16.517Z,81.30
2018-07-21T13:38:50.026Z,82.10
2018-07-21T13:41:23.633Z,81.40
2018-07-21T13:43:57.135Z,80.40
2018-07-21T13:46:30.779Z,81.30
2018-07-21T13:49:04.369Z,80.00
2018-07-21T13:51:37.960Z,79.20
2018-07-21T13:54:11.569Z,79.00
2018-07-21T13:56:45.141Z,79.30
2018-07-21T13:59:18.691Z,78.60
2018-07-21T14:01:52.261Z,79.00
2018-07-21T14:04:25.757Z,80.40
2018-07-21T14:06:59.374Z,79.60
2018-07-21T14:09:32.876Z,78.80
2018-07-21T14:12:06.510Z,79.20
2018-07-21T14:14:40.017Z,81.10
2018-07-21T14:17:13.566Z,81.60
2018-07-21T14:19:47.098Z,83.20
2018-07-21T14:22:20.736Z,83.60
2018-07-21T14:24:54.324Z,83.00
2018-07-21T14:27:27.866Z,84.30
2018-07-21T14:30:01.529Z,85.50
2018-07-21T14:32:34.978Z,84.40
2018-07-21T14:35:08.633Z,84.50
2018-07-21T14:37:42.177Z,84.10
2018-07-21T14:40:15.704Z,84.20
2018-07-21T14:42:49.310Z,84.30
2018-07-21T14:45:22.869Z,84.00
2018-07-21T14:47:56.433Z,83.80
2018-07-21T14:50:30.101Z,84.40
2018-07-21T14:53:03.658Z,84.30
2018-07-21T14:55:37.164Z,84.20
2018-07-21T14:58:10.724Z,83.40
2018-07-21T15:00:44.321Z,82.90
2018-07-21T15:03:17.907Z,82.30
2018-07-21T15:05:51.416Z,83.00
2018-07-21T15:08:24.933Z,81.60
2018-07-21T15:10:58.438Z,82.00
2018-07-21T15:16:05.417Z,81.70
2018-07-21T15:18:38.877Z,81.40
2018-07-21T15:21:12.456Z,82.30
2018-07-21T15:23:46.006Z,81.60
2018-07-21T15:26:19.531Z,82.20
2018-07-21T15:28:53.065Z,81.60
2018-07-21T15:31:26.537Z,80.90
2018-07-21T15:34:00.016Z,81.00
2018-07-21T15:36:33.599Z,80.30
2018-07-21T15:39:08.530Z,80.70
2018-07-21T15:41:42.079Z,82.20
2018-07-21T15:44:15.661Z,81.50
2018-07-21T15:46:49.148Z,79.90
2018-07-21T15:49:22.635Z,78.50
2018-07-21T15:51:57.178Z,79.20
2018-07-21T15:54:30.818Z,79.60
2018-07-21T15:57:04.412Z,79.30
2018-07-21T15:59:37.942Z,79.40
2018-07-21T16:02:11.495Z,78.10
2018-07-21T16:07:18.337Z,78.90
2018-07-21T16:09:51.848Z,78.90
2018-07-21T16:12:25.317Z,80.10
2018-07-21T16:15:03.869Z,79.30
2018-07-21T16:17:32.427Z,80.80
2018-07-21T16:20:05.907Z,79.60
2018-07-21T16:22:39.384Z,81.10
2018-07-21T16:25:12.885Z,80.30
2018-07-21T16:27:46.441Z,80.20
2018-07-21T16:30:20.160Z,79.60
2018-07-21T16:32:53.664Z,79.20
2018-07-21T16:35:27.114Z,79.60
2018-07-21T16:38:00.646Z,79.40
2018-07-21T16:40:34.074Z,79.60
2018-07-21T16:43:07.684Z,80.20
2018-07-21T16:45:41.192Z,79.80
2018-07-21T16:48:14.729Z,79.70
2018-07-21T16:50:48.190Z,79.50
2018-07-21T16:53:21.721Z,79.90
2018-07-21T16:55:55.180Z,80.90
2018-07-21T16:58:28.749Z,80.60
2018-07-21T17:01:02.277Z,80.60
2018-07-21T17:03:35.839Z,81.50
2018-07-21T17:06:09.400Z,81.50
2018-07-21T17:08:42.953Z,81.30
2018-07-21T17:11:16.415Z,82.30
2018-07-21T17:13:49.917Z,82.30
2018-07-21T17:16:23.412Z,83.80
2018-07-21T17:18:56.913Z,82.80
2018-07-21T17:21:30.388Z,82.20
2018-07-21T17:24:03.817Z,82.60
2018-07-21T17:26:37.274Z,83.10
2018-07-21T17:31:43.941Z,83.90
2018-07-21T17:34:17.484Z,84.30
2018-07-21T17:36:50.933Z,84.10
2018-07-21T17:39:25.347Z,84.10
2018-07-21T17:41:58.799Z,84.50
2018-07-21T17:44:32.285Z,83.90
2018-07-21T17:47:05.895Z,84.30
2018-07-21T17:49:39.352Z,84.50
2018-07-21T17:52:12.910Z,83.60
2018-07-21T17:54:46.334Z,84.40
2018-07-21T17:57:19.917Z,84.70
2018-07-21T17:59:53.332Z,85.20
2018-07-21T18:02:26.818Z,84.70
2018-07-21T18:05:00.325Z,85.30
2018-07-21T18:07:33.849Z,84.90
2018-07-21T18:10:07.291Z,85.30
2018-07-21T18:12:40.809Z,85.10
2018-07-21T18:15:14.489Z,84.50
2018-07-21T18:17:48.033Z,85.30
2018-07-21T18:20:21.586Z,85.90
2018-07-21T18:22:55.170Z,84.70
2018-07-21T18:25:28.657Z,86.10
2018-07-21T18:28:02.164Z,84.90
2018-07-21T18:30:35.661Z,83.80
2018-07-21T18:33:09.175Z,83.50
2018-07-21T18:35:42.625Z,83.30
2018-07-21T18:38:16.105Z,82.80
2018-07-21T18:40:49.574Z,83.40
2018-07-21T18:43:23.088Z,84.20
2018-07-21T18:45:56.640Z,84.20
2018-07-21T18:48:30.127Z,84.80
2018-07-21T18:51:03.630Z,85.40
2018-07-21T18:53:37.131Z,85.40
2018-07-21T18:56:10.909Z,85.10
2018-07-21T18:58:44.496Z,86.00
2018-07-21T19:01:18.037Z,86.50
2018-07-21T19:03:51.563Z,87.40
2018-07-21T19:06:25.085Z,87.60
2018-07-21T19:09:02.328Z,88.00
2018-07-21T19:11:35.940Z,87.90
2018-07-21T19:14:09.458Z,87.90
2018-07-21T19:19:17.078Z,88.70
2018-07-21T19:21:50.597Z,87.80
2018-07-21T19:24:24.102Z,88.40
2018-07-21T19:27:02.992Z,89.00
2018-07-21T19:29:36.763Z,89.10
2018-07-21T19:32:15.741Z,89.80
2018-07-21T19:34:49.257Z,89.70
2018-07-21T19:37:28.145Z,89.50
2018-07-21T19:40:02.043Z,90.00
2018-07-21T19:42:35.631Z,89.90
2018-07-21T19:45:09.144Z,90.00
2018-07-21T19:47:43.447Z,90.10
2018-07-21T19:50:16.885Z,90.40
2018-07-21T19:52:50.426Z,90.20
2018-07-21T19:55:23.874Z,90.30
2018-07-21T19:57:57.392Z,90.20
2018-07-21T20:00:31.217Z,90.00
2018-07-21T20:03:05.047Z,90.00
2018-07-21T20:05:38.544Z,90.50
2018-07-21T20:08:12.041Z,90.20
2018-07-21T20:10:45.567Z,90.20
2018-07-21T20:13:19.064Z,90.30
2018-07-21T20:15:52.513Z,90.10
2018-07-21T20:18:25.993Z,90.30
2018-07-21T20:20:59.577Z,90.20
2018-07-21T20:23:33.070Z,90.30
2018-07-21T20:26:06.620Z,90.20
2018-07-21T20:28:40.106Z,90.20
2018-07-21T20:31:13.618Z,90.30
2018-07-21T20:33:47.130Z,89.90
2018-07-21T20:36:20.625Z,89.30
2018-07-21T20:38:54.187Z,89.50
2018-07-21T20:41:27.705Z,88.70
2018-07-21T20:44:01.198Z,89.60
2018-07-21T20:46:35.190Z,89.60
2018-07-21T20:49:08.641Z,89.10
2018-07-21T20:51:42.172Z,89.20
2018-07-21T20:54:15.703Z,88.30
2018-07-21T20:56:49.234Z,88.20
2018-07-21T20:59:22.737Z,88.80
2018-07-21T21:01:56.250Z,89.10
2018-07-21T21:04:29.703Z,88.70
2018-07-21T21:07:03.363Z,89.10
2018-07-21T21:09:36.845Z,89.20
2018-07-21T21:12:10.435Z,89.50
2018-07-21T21:14:43.904Z,89.70
2018-07-21T21:17:17.366Z,89.80
2018-07-21T21:19:50.982Z,90.10
2018-07-21T21:22:24.510Z,90.00
2018-07-21T21:24:58.265Z,90.30
2018-07-21T21:27:32.104Z,90.60
2018-07-21T21:30:05.677Z,90.20
2018-07-21T21:32:39.184Z,90.30
2018-07-21T21:35:12.659Z,90.30
2018-07-21T21:37:46.185Z,90.20
2018-07-21T21:40:19.721Z,90.40
2018-07-21T21:42:53.210Z,90.10
2018-07-21T21:45:26.723Z,90.40
2018-07-21T21:48:00.246Z,90.80
2018-07-21T21:50:33.678Z,90.50
2018-07-21T21:53:07.193Z,90.40
2018-07-21T21:55:41.044Z,90.40
2018-07-21T21:58:14.536Z,90.30
2018-07-21T22:01:08.266Z,90.60
2018-07-21T22:03:41.980Z,90.60
2018-07-21T22:06:15.576Z,90.50
2018-07-21T22:08:49.025Z,90.60
2018-07-21T22:11:22.732Z,90.40
2018-07-21T22:13:56.174Z,90.40
2018-07-21T22:16:29.677Z,90.50
2018-07-21T22:19:03.161Z,90.40
2018-07-21T22:21:36.796Z,90.50
2018-07-21T22:24:10.216Z,90.40
2018-07-21T22:26:43.758Z,90.70
2018-07-21T22:29:17.322Z,90.90
2018-07-21T22:31:50.756Z,90.90
2018-07-21T22:34:24.242Z,90.90
2018-07-21T22:36:57.729Z,90.50
2018-07-21T22:39:32.191Z,90.60
2018-07-21T22:42:05.704Z,90.50
2018-07-21T22:44:39.631Z,90.50
2018-07-21T22:49:46.289Z,90.50
2018-07-21T22:52:19.783Z,90.50
2018-07-21T22:54:53.229Z,90.30
2018-07-21T22:57:26.700Z,90.30
2018-07-21T23:00:00.188Z,90.40
2018-07-21T23:02:33.659Z,90.50
2018-07-21T23:05:07.133Z,90.40
2018-07-21T23:07:40.702Z,90.50
2018-07-21T23:10:14.160Z,90.80
2018-07-21T23:12:47.624Z,90.80
2018-07-21T23:15:21.103Z,91.00
2018-07-21T23:17:54.542Z,91.10
2018-07-21T23:20:28.023Z,91.00
2018-07-21T23:23:01.436Z,91.10
2018-07-21T23:25:34.957Z,91.10
2018-07-21T23:28:08.404Z,91.60
2018-07-21T23:30:41.851Z,91.70
2018-07-21T23:33:15.296Z,91.70
2018-07-21T23:35:48.755Z,91.50
2018-07-21T23:38:22.273Z,91.60
2018-07-21T23:40:55.780Z,91.60
2018-07-21T23:43:29.175Z,91.90
2018-07-21T23:46:02.662Z,91.80
2018-07-21T23:48:36.076Z,92.10
2018-07-21T23:51:09.564Z,92.30
2018-07-21T23:53:43.004Z,91.90
2018-07-21T23:56:16.464Z,91.80
2018-07-21T23:58:49.897Z,92.20
